sensor_id;sensor_type;location;lat;lon;timestamp;temperature;humidity
1958;DHT22;979;51.076;13.748;2023-04-24T00:03:11;15.50;71.10
1958;DHT22;979;51.076;13.748;2023-04-24T00:06:15;15.40;70.90
1958;DHT22;979;51.076;13.748;2023-04-24T00:09:26;15.50;70.80
1958;DHT22;979;51.076;13.748;2023-04-24T00:12:15;15.40;70.60
1958;DHT22;979;51.076;13.748;2023-04-24T00:14:57;15.40;71.10
1958;DHT22;979;51.076;13.748;2023-04-24T00:18:09;15.40;71.00
1958;DHT22;979;51.076;13.748;2023-04-24T00:20:48;15.40;71.20
1958;DHT22;979;51.076;13.748;2023-04-24T00:27:18;15.70;71.40
1958;DHT22;979;51.076;13.748;2023-04-24T00:30:13;15.40;70.90
1958;DHT22;979;51.076;13.748;2023-04-24T00:33:24;15.50;71.10
1958;DHT22;979;51.076;13.748;2023-04-24T00:36:16;15.40;71.10
1958;DHT22;979;51.076;13.748;2023-04-24T00:38:55;15.50;70.80
1958;DHT22;979;51.076;13.748;2023-04-24T00:46:03;15.50;71.20
1958;DHT22;979;51.076;13.748;2023-04-24T00:48:45;15.50;71.10
1958;DHT22;979;51.076;13.748;2023-04-24T00:51:35;15.60;71.30
1958;DHT22;979;51.076;13.748;2023-04-24T00:54:27;15.50;71.50
1958;DHT22;979;51.076;13.748;2023-04-24T01:00:54;15.60;71.40
1958;DHT22;979;51.076;13.748;2023-04-24T01:04:06;15.60;71.50
1958;DHT22;979;51.076;13.748;2023-04-24T01:07:07;15.60;71.40
1958;DHT22;979;51.076;13.748;2023-04-24T01:10:31;15.70;71.70
1958;DHT22;979;51.076;13.748;2023-04-24T01:13:26;15.60;71.50
1958;DHT22;979;51.076;13.748;2023-04-24T01:19:42;15.90;71.80
1958;DHT22;979;51.076;13.748;2023-04-24T01:22:58;15.50;71.60
1958;DHT22;979;51.076;13.748;2023-04-24T01:25:56;15.50;71.70
1958;DHT22;979;51.076;13.748;2023-04-24T01:29:02;15.40;71.60
1958;DHT22;979;51.076;13.748;2023-04-24T01:31:58;15.40;71.40
1958;DHT22;979;51.076;13.748;2023-04-24T01:34:43;15.50;71.50
1958;DHT22;979;51.076;13.748;2023-04-24T01:37:27;15.30;71.20
1958;DHT22;979;51.076;13.748;2023-04-24T01:40:27;15.50;71.50
1958;DHT22;979;51.076;13.748;2023-04-24T01:43:34;15.40;71.70
1958;DHT22;979;51.076;13.748;2023-04-24T01:46:31;15.30;71.50
1958;DHT22;979;51.076;13.748;2023-04-24T01:49:41;15.50;71.70
1958;DHT22;979;51.076;13.748;2023-04-24T01:52:30;15.40;71.70
1958;DHT22;979;51.076;13.748;2023-04-24T01:55:15;15.80;72.00
1958;DHT22;979;51.076;13.748;2023-04-24T01:58:10;15.60;72.20
1958;DHT22;979;51.076;13.748;2023-04-24T02:01:08;15.60;72.10
1958;DHT22;979;51.076;13.748;2023-04-24T02:04:03;15.60;71.90
1958;DHT22;979;51.076;13.748;2023-04-24T02:07:19;15.60;72.30
1958;DHT22;979;51.076;13.748;2023-04-24T02:10:33;15.60;72.00
1958;DHT22;979;51.076;13.748;2023-04-24T02:17:25;15.60;71.90
1958;DHT22;979;51.076;13.748;2023-04-24T02:20:13;15.60;72.20
1958;DHT22;979;51.076;13.748;2023-04-24T02:23:16;15.50;72.10
1958;DHT22;979;51.076;13.748;2023-04-24T02:25:56;15.60;72.40
1958;DHT22;979;51.076;13.748;2023-04-24T02:28:33;15.50;72.10
1958;DHT22;979;51.076;13.748;2023-04-24T02:31:38;15.50;72.50
1958;DHT22;979;51.076;13.748;2023-04-24T02:34:28;15.60;72.50
1958;DHT22;979;51.076;13.748;2023-04-24T02:37:08;15.50;72.50
1958;DHT22;979;51.076;13.748;2023-04-24T02:39:54;15.60;72.70
1958;DHT22;979;51.076;13.748;2023-04-24T02:43:21;15.60;72.40
1958;DHT22;979;51.076;13.748;2023-04-24T02:46:28;15.60;72.50
1958;DHT22;979;51.076;13.748;2023-04-24T02:49:18;15.60;72.60
1958;DHT22;979;51.076;13.748;2023-04-24T02:52:36;15.70;72.30
1958;DHT22;979;51.076;13.748;2023-04-24T02:55:12;15.70;72.50
1958;DHT22;979;51.076;13.748;2023-04-24T02:57:53;15.60;72.50
1958;DHT22;979;51.076;13.748;2023-04-24T03:00:55;15.60;72.60
1958;DHT22;979;51.076;13.748;2023-04-24T03:04:05;15.40;72.60
1958;DHT22;979;51.076;13.748;2023-04-24T03:07:04;15.50;72.60
1958;DHT22;979;51.076;13.748;2023-04-24T03:09:59;15.50;72.90
1958;DHT22;979;51.076;13.748;2023-04-24T03:12:55;15.60;72.70
1958;DHT22;979;51.076;13.748;2023-04-24T03:16:22;15.50;72.80
1958;DHT22;979;51.076;13.748;2023-04-24T03:19:35;15.80;72.50
1958;DHT22;979;51.076;13.748;2023-04-24T03:22:23;15.70;72.40
1958;DHT22;979;51.076;13.748;2023-04-24T03:25:18;15.60;72.60
1958;DHT22;979;51.076;13.748;2023-04-24T03:28:34;15.80;72.50
1958;DHT22;979;51.076;13.748;2023-04-24T03:31:20;15.70;72.40
1958;DHT22;979;51.076;13.748;2023-04-24T03:34:24;15.70;72.30
1958;DHT22;979;51.076;13.748;2023-04-24T03:37:02;15.70;72.30
1958;DHT22;979;51.076;13.748;2023-04-24T03:39:43;15.60;72.40
1958;DHT22;979;51.076;13.748;2023-04-24T03:42:32;15.50;72.60
1958;DHT22;979;51.076;13.748;2023-04-24T03:45:36;15.70;72.50
1958;DHT22;979;51.076;13.748;2023-04-24T03:48:28;15.50;72.70
1958;DHT22;979;51.076;13.748;2023-04-24T03:51:56;15.40;72.70
1958;DHT22;979;51.076;13.748;2023-04-24T03:54:48;15.40;72.90
1958;DHT22;979;51.076;13.748;2023-04-24T03:57:59;15.40;72.60
1958;DHT22;979;51.076;13.748;2023-04-24T04:01:32;15.40;72.80
1958;DHT22;979;51.076;13.748;2023-04-24T04:04:25;15.30;72.80
1958;DHT22;979;51.076;13.748;2023-04-24T04:07:10;15.40;72.80
1958;DHT22;979;51.076;13.748;2023-04-24T04:09:57;15.30;73.10
1958;DHT22;979;51.076;13.748;2023-04-24T04:13:12;15.50;72.80
1958;DHT22;979;51.076;13.748;2023-04-24T04:16:15;15.40;72.80
1958;DHT22;979;51.076;13.748;2023-04-24T04:19:23;15.50;73.00
1958;DHT22;979;51.076;13.748;2023-04-24T04:25:43;15.80;72.50
1958;DHT22;979;51.076;13.748;2023-04-24T04:28:48;15.60;72.20
1958;DHT22;979;51.076;13.748;2023-04-24T04:31:33;15.60;72.10
1958;DHT22;979;51.076;13.748;2023-04-24T04:34:14;15.70;72.00
1958;DHT22;979;51.076;13.748;2023-04-24T04:36:49;15.80;71.90
1958;DHT22;979;51.076;13.748;2023-04-24T04:40:46;15.70;71.70
1958;DHT22;979;51.076;13.748;2023-04-24T04:43:21;15.80;71.10
1958;DHT22;979;51.076;13.748;2023-04-24T04:46:35;15.80;71.30
1958;DHT22;979;51.076;13.748;2023-04-24T04:49:41;15.80;70.90
1958;DHT22;979;51.076;13.748;2023-04-24T04:52:28;15.80;70.30
1958;DHT22;979;51.076;13.748;2023-04-24T04:55:35;15.90;70.10
1958;DHT22;979;51.076;13.748;2023-04-24T05:02:37;15.90;69.40
1958;DHT22;979;51.076;13.748;2023-04-24T05:05:08;16.10;69.60
1958;DHT22;979;51.076;13.748;2023-04-24T05:07:37;16.20;69.60
1958;DHT22;979;51.076;13.748;2023-04-24T05:10:28;16.30;69.80
1958;DHT22;979;51.076;13.748;2023-04-24T05:13:17;16.30;69.40
1958;DHT22;979;51.076;13.748;2023-04-24T05:16:19;16.40;69.00
1958;DHT22;979;51.076;13.748;2023-04-24T05:19:01;16.50;68.90
1958;DHT22;979;51.076;13.748;2023-04-24T05:21:43;16.60;69.10
1958;DHT22;979;51.076;13.748;2023-04-24T05:24:30;16.60;68.80
1958;DHT22;979;51.076;13.748;2023-04-24T05:27:40;16.60;68.30
1958;DHT22;979;51.076;13.748;2023-04-24T05:30:22;16.70;68.60
1958;DHT22;979;51.076;13.748;2023-04-24T05:33:05;16.60;68.00
1958;DHT22;979;51.076;13.748;2023-04-24T05:35:42;16.80;68.50
1958;DHT22;979;51.076;13.748;2023-04-24T05:38:48;16.80;68.40
1958;DHT22;979;51.076;13.748;2023-04-24T05:41:38;16.80;67.30
1958;DHT22;979;51.076;13.748;2023-04-24T05:44:18;17.00;67.80
1958;DHT22;979;51.076;13.748;2023-04-24T05:46:59;17.10;67.20
1958;DHT22;979;51.076;13.748;2023-04-24T05:49:35;17.10;67.40
1958;DHT22;979;51.076;13.748;2023-04-24T05:52:16;17.20;67.10
1958;DHT22;979;51.076;13.748;2023-04-24T05:54:54;17.20;67.10
1958;DHT22;979;51.076;13.748;2023-04-24T05:57:33;17.30;67.10
1958;DHT22;979;51.076;13.748;2023-04-24T06:00:27;17.40;66.90
1958;DHT22;979;51.076;13.748;2023-04-24T06:03:15;17.50;66.70
1958;DHT22;979;51.076;13.748;2023-04-24T06:05:50;17.40;65.70
1958;DHT22;979;51.076;13.748;2023-04-24T06:08:27;17.70;66.20
1958;DHT22;979;51.076;13.748;2023-04-24T06:11:05;17.70;65.40
1958;DHT22;979;51.076;13.748;2023-04-24T06:13:38;17.70;65.50
1958;DHT22;979;51.076;13.748;2023-04-24T06:16:34;17.80;65.50
1958;DHT22;979;51.076;13.748;2023-04-24T06:19:11;17.80;64.80
1958;DHT22;979;51.076;13.748;2023-04-24T06:21:39;17.80;64.60
1958;DHT22;979;51.076;13.748;2023-04-24T06:24:16;17.90;64.60
1958;DHT22;979;51.076;13.748;2023-04-24T06:27:03;18.00;64.80
1958;DHT22;979;51.076;13.748;2023-04-24T06:29:45;18.00;64.00
1958;DHT22;979;51.076;13.748;2023-04-24T06:32:48;18.10;64.00
1958;DHT22;979;51.076;13.748;2023-04-24T06:35:32;18.30;64.10
1958;DHT22;979;51.076;13.748;2023-04-24T06:38:09;18.30;64.00
1958;DHT22;979;51.076;13.748;2023-04-24T06:40:41;18.40;63.80
1958;DHT22;979;51.076;13.748;2023-04-24T06:43:16;18.50;63.80
1958;DHT22;979;51.076;13.748;2023-04-24T06:46:02;18.70;63.80
1958;DHT22;979;51.076;13.748;2023-04-24T06:48:45;18.70;63.10
1958;DHT22;979;51.076;13.748;2023-04-24T06:51:18;18.80;62.80
1958;DHT22;979;51.076;13.748;2023-04-24T06:53:54;18.80;62.80
1958;DHT22;979;51.076;13.748;2023-04-24T06:56:46;18.90;62.70
1958;DHT22;979;51.076;13.748;2023-04-24T06:59:28;18.70;61.90
1958;DHT22;979;51.076;13.748;2023-04-24T07:02:09;18.90;62.00
1958;DHT22;979;51.076;13.748;2023-04-24T07:04:57;19.00;61.50
1958;DHT22;979;51.076;13.748;2023-04-24T07:07:34;19.10;61.00
1958;DHT22;979;51.076;13.748;2023-04-24T07:10:08;19.20;61.60
1958;DHT22;979;51.076;13.748;2023-04-24T07:12:44;19.40;61.70
1958;DHT22;979;51.076;13.748;2023-04-24T07:15:17;19.60;61.40
1958;DHT22;979;51.076;13.748;2023-04-24T07:17:53;19.60;60.70
1958;DHT22;979;51.076;13.748;2023-04-24T07:20:37;19.70;60.80
1958;DHT22;979;51.076;13.748;2023-04-24T07:23:06;19.80;60.60
1958;DHT22;979;51.076;13.748;2023-04-24T07:25:42;20.00;60.40
1958;DHT22;979;51.076;13.748;2023-04-24T07:28:13;19.90;60.10
1958;DHT22;979;51.076;13.748;2023-04-24T07:31:13;20.00;60.20
1958;DHT22;979;51.076;13.748;2023-04-24T07:33:44;20.00;59.60
1958;DHT22;979;51.076;13.748;2023-04-24T07:36:16;20.20;59.60
1958;DHT22;979;51.076;13.748;2023-04-24T07:38:50;20.10;59.40
1958;DHT22;979;51.076;13.748;2023-04-24T07:41:26;20.00;59.10
1958;DHT22;979;51.076;13.748;2023-04-24T07:43:57;20.00;58.80
1958;DHT22;979;51.076;13.748;2023-04-24T07:46:44;20.00;58.60
1958;DHT22;979;51.076;13.748;2023-04-24T07:49:21;20.00;58.60
1958;DHT22;979;51.076;13.748;2023-04-24T07:51:50;19.90;58.60
1958;DHT22;979;51.076;13.748;2023-04-24T07:54:22;19.90;58.80
1958;DHT22;979;51.076;13.748;2023-04-24T07:56:54;19.90;58.70
1958;DHT22;979;51.076;13.748;2023-04-24T07:59:29;20.00;58.70
1958;DHT22;979;51.076;13.748;2023-04-24T08:02:13;20.00;58.60
1958;DHT22;979;51.076;13.748;2023-04-24T08:04:43;20.10;58.30
1958;DHT22;979;51.076;13.748;2023-04-24T08:07:12;20.00;58.20
1958;DHT22;979;51.076;13.748;2023-04-24T08:09:44;20.00;58.10
1958;DHT22;979;51.076;13.748;2023-04-24T08:12:23;20.00;57.90
1958;DHT22;979;51.076;13.748;2023-04-24T08:14:59;20.10;58.10
1958;DHT22;979;51.076;13.748;2023-04-24T08:17:37;20.10;58.30
1958;DHT22;979;51.076;13.748;2023-04-24T08:20:14;20.20;57.80
1958;DHT22;979;51.076;13.748;2023-04-24T08:22:51;20.30;57.50
1958;DHT22;979;51.076;13.748;2023-04-24T08:25:24;20.30;57.00
1958;DHT22;979;51.076;13.748;2023-04-24T08:27:55;20.30;56.90
1958;DHT22;979;51.076;13.748;2023-04-24T08:30:31;20.30;57.10
1958;DHT22;979;51.076;13.748;2023-04-24T08:33:02;20.20;56.40
1958;DHT22;979;51.076;13.748;2023-04-24T08:35:36;20.20;56.60
1958;DHT22;979;51.076;13.748;2023-04-24T08:38:14;20.00;56.50
1958;DHT22;979;51.076;13.748;2023-04-24T08:40:49;19.90;56.50
1958;DHT22;979;51.076;13.748;2023-04-24T08:43:23;19.90;56.90
1958;DHT22;979;51.076;13.748;2023-04-24T08:46:00;19.80;56.80
1958;DHT22;979;51.076;13.748;2023-04-24T08:48:38;19.80;57.40
1958;DHT22;979;51.076;13.748;2023-04-24T08:51:13;19.90;57.70
1958;DHT22;979;51.076;13.748;2023-04-24T08:53:53;20.00;57.40
1958;DHT22;979;51.076;13.748;2023-04-24T08:56:31;20.00;57.30
1958;DHT22;979;51.076;13.748;2023-04-24T08:59:17;20.10;56.90
1958;DHT22;979;51.076;13.748;2023-04-24T09:02:10;20.10;56.90
1958;DHT22;979;51.076;13.748;2023-04-24T09:05:02;20.00;56.70
1958;DHT22;979;51.076;13.748;2023-04-24T09:07:52;20.10;56.60
1958;DHT22;979;51.076;13.748;2023-04-24T09:10:32;20.10;56.30
1958;DHT22;979;51.076;13.748;2023-04-24T09:13:13;20.20;56.10
1958;DHT22;979;51.076;13.748;2023-04-24T09:15:50;20.20;55.60
1958;DHT22;979;51.076;13.748;2023-04-24T09:18:40;20.30;55.20
1958;DHT22;979;51.076;13.748;2023-04-24T09:21:21;20.30;54.60
1958;DHT22;979;51.076;13.748;2023-04-24T09:24:08;20.30;54.70
1958;DHT22;979;51.076;13.748;2023-04-24T09:26:49;20.10;54.50
1958;DHT22;979;51.076;13.748;2023-04-24T09:29:38;20.30;54.80
1958;DHT22;979;51.076;13.748;2023-04-24T09:32:23;20.30;54.60
1958;DHT22;979;51.076;13.748;2023-04-24T09:35:10;20.30;54.60
1958;DHT22;979;51.076;13.748;2023-04-24T09:37:52;20.10;54.30
1958;DHT22;979;51.076;13.748;2023-04-24T09:40:46;20.20;54.40
1958;DHT22;979;51.076;13.748;2023-04-24T09:43:21;20.30;54.50
1958;DHT22;979;51.076;13.748;2023-04-24T09:45:55;20.20;54.40
1958;DHT22;979;51.076;13.748;2023-04-24T09:48:32;20.20;54.50
1958;DHT22;979;51.076;13.748;2023-04-24T09:51:04;20.10;54.60
1958;DHT22;979;51.076;13.748;2023-04-24T09:53:45;20.20;54.80
1958;DHT22;979;51.076;13.748;2023-04-24T09:56:31;20.20;54.50
1958;DHT22;979;51.076;13.748;2023-04-24T09:59:06;20.30;54.70
1958;DHT22;979;51.076;13.748;2023-04-24T10:01:36;20.40;54.40
1958;DHT22;979;51.076;13.748;2023-04-24T10:04:16;20.20;54.20
1958;DHT22;979;51.076;13.748;2023-04-24T10:06:51;20.40;53.90
1958;DHT22;979;51.076;13.748;2023-04-24T10:09:20;20.50;54.00
1958;DHT22;979;51.076;13.748;2023-04-24T10:11:54;20.50;53.90
1958;DHT22;979;51.076;13.748;2023-04-24T10:14:26;20.60;54.00
1958;DHT22;979;51.076;13.748;2023-04-24T10:17:05;20.60;53.60
1958;DHT22;979;51.076;13.748;2023-04-24T10:19:47;20.70;53.80
1958;DHT22;979;51.076;13.748;2023-04-24T10:22:24;20.70;53.90
1958;DHT22;979;51.076;13.748;2023-04-24T10:25:00;20.50;53.50
1958;DHT22;979;51.076;13.748;2023-04-24T10:27:32;20.80;53.70
1958;DHT22;979;51.076;13.748;2023-04-24T10:30:03;20.70;53.10
1958;DHT22;979;51.076;13.748;2023-04-24T10:32:38;20.70;53.10
1958;DHT22;979;51.076;13.748;2023-04-24T10:35:09;20.70;52.90
1958;DHT22;979;51.076;13.748;2023-04-24T10:37:45;20.70;53.00
1958;DHT22;979;51.076;13.748;2023-04-24T10:40:18;20.90;52.90
1958;DHT22;979;51.076;13.748;2023-04-24T10:42:47;21.10;53.00
1958;DHT22;979;51.076;13.748;2023-04-24T10:45:16;21.30;52.90
1958;DHT22;979;51.076;13.748;2023-04-24T10:47:52;21.50;52.80
1958;DHT22;979;51.076;13.748;2023-04-24T10:50:22;21.50;52.40
1958;DHT22;979;51.076;13.748;2023-04-24T10:53:07;21.60;52.50
1958;DHT22;979;51.076;13.748;2023-04-24T10:55:45;21.70;52.10
1958;DHT22;979;51.076;13.748;2023-04-24T10:58:35;21.80;52.50
1958;DHT22;979;51.076;13.748;2023-04-24T11:01:55;21.80;52.20
1958;DHT22;979;51.076;13.748;2023-04-24T11:04:33;22.20;51.90
1958;DHT22;979;51.076;13.748;2023-04-24T11:07:14;21.90;51.90
1958;DHT22;979;51.076;13.748;2023-04-24T11:09:58;21.90;51.90
1958;DHT22;979;51.076;13.748;2023-04-24T11:12:35;21.90;52.20
1958;DHT22;979;51.076;13.748;2023-04-24T11:15:10;21.70;51.90
1958;DHT22;979;51.076;13.748;2023-04-24T11:18:01;21.70;52.20
1958;DHT22;979;51.076;13.748;2023-04-24T11:20:47;21.60;51.60
1958;DHT22;979;51.076;13.748;2023-04-24T11:23:41;21.40;52.20
1958;DHT22;979;51.076;13.748;2023-04-24T11:26:34;21.30;52.40
1958;DHT22;979;51.076;13.748;2023-04-24T11:29:37;21.20;52.30
1958;DHT22;979;51.076;13.748;2023-04-24T11:32:17;21.20;52.40
1958;DHT22;979;51.076;13.748;2023-04-24T11:34:49;21.20;52.50
1958;DHT22;979;51.076;13.748;2023-04-24T11:37:53;21.20;53.40
1958;DHT22;979;51.076;13.748;2023-04-24T11:40:49;21.20;52.90
1958;DHT22;979;51.076;13.748;2023-04-24T11:43:49;21.50;53.20
1958;DHT22;979;51.076;13.748;2023-04-24T11:46:35;21.90;52.80
1958;DHT22;979;51.076;13.748;2023-04-24T11:49:15;22.70;53.10
1958;DHT22;979;51.076;13.748;2023-04-24T11:51:55;23.60;52.10
1958;DHT22;979;51.076;13.748;2023-04-24T11:54:27;24.10;51.00
1958;DHT22;979;51.076;13.748;2023-04-24T11:57:04;24.10;50.50
1958;DHT22;979;51.076;13.748;2023-04-24T12:00:07;23.90;49.70
1958;DHT22;979;51.076;13.748;2023-04-24T12:03:13;23.50;49.40
1958;DHT22;979;51.076;13.748;2023-04-24T12:05:52;23.00;49.70
1958;DHT22;979;51.076;13.748;2023-04-24T12:08:28;22.50;50.10
1958;DHT22;979;51.076;13.748;2023-04-24T12:11:10;22.10;50.50
1958;DHT22;979;51.076;13.748;2023-04-24T12:13:54;21.60;50.90
1958;DHT22;979;51.076;13.748;2023-04-24T12:16:47;21.10;50.60
1958;DHT22;979;51.076;13.748;2023-04-24T12:19:33;20.40;51.00
1958;DHT22;979;51.076;13.748;2023-04-24T12:22:12;20.20;51.00
1958;DHT22;979;51.076;13.748;2023-04-24T12:25:00;20.10;51.30
1958;DHT22;979;51.076;13.748;2023-04-24T12:27:39;20.00;51.30
1958;DHT22;979;51.076;13.748;2023-04-24T12:30:40;20.00;51.30
1958;DHT22;979;51.076;13.748;2023-04-24T12:33:19;20.00;51.00
1958;DHT22;979;51.076;13.748;2023-04-24T12:35:51;20.00;50.80
1958;DHT22;979;51.076;13.748;2023-04-24T12:39:00;20.20;50.90
1958;DHT22;979;51.076;13.748;2023-04-24T12:41:56;20.40;50.80
1958;DHT22;979;51.076;13.748;2023-04-24T12:44:35;20.40;50.00
1958;DHT22;979;51.076;13.748;2023-04-24T12:47:16;20.90;50.00
1958;DHT22;979;51.076;13.748;2023-04-24T12:50:00;21.40;49.70
1958;DHT22;979;51.076;13.748;2023-04-24T12:52:54;21.30;48.60
1958;DHT22;979;51.076;13.748;2023-04-24T12:55:37;21.10;48.30
1958;DHT22;979;51.076;13.748;2023-04-24T12:58:27;20.80;48.80
1958;DHT22;979;51.076;13.748;2023-04-24T13:01:02;20.70;48.40
1958;DHT22;979;51.076;13.748;2023-04-24T13:03:57;20.50;48.40
1958;DHT22;979;51.076;13.748;2023-04-24T13:06:42;20.60;48.10
1958;DHT22;979;51.076;13.748;2023-04-24T13:09:10;20.90;48.70
1958;DHT22;979;51.076;13.748;2023-04-24T13:11:41;22.10;49.10
1958;DHT22;979;51.076;13.748;2023-04-24T13:14:23;23.70;48.60
1958;DHT22;979;51.076;13.748;2023-04-24T13:17:04;24.40;46.60
1958;DHT22;979;51.076;13.748;2023-04-24T13:22:33;25.20;44.50
1958;DHT22;979;51.076;13.748;2023-04-24T13:26:12;25.10;44.50
1958;DHT22;979;51.076;13.748;2023-04-24T13:28:54;25.60;43.70
1958;DHT22;979;51.076;13.748;2023-04-24T13:31:42;26.30;44.20
1958;DHT22;979;51.076;13.748;2023-04-24T13:34:54;26.90;43.20
1958;DHT22;979;51.076;13.748;2023-04-24T13:37:27;27.20;41.30
1958;DHT22;979;51.076;13.748;2023-04-24T13:40:19;27.50;41.80
1958;DHT22;979;51.076;13.748;2023-04-24T13:43:05;27.80;41.80
1958;DHT22;979;51.076;13.748;2023-04-24T13:45:40;28.40;41.70
1958;DHT22;979;51.076;13.748;2023-04-24T13:48:22;29.10;40.20
1958;DHT22;979;51.076;13.748;2023-04-24T13:50:58;29.20;38.60
1958;DHT22;979;51.076;13.748;2023-04-24T13:53:35;29.50;38.30
1958;DHT22;979;51.076;13.748;2023-04-24T13:56:33;28.90;37.30
1958;DHT22;979;51.076;13.748;2023-04-24T13:59:19;27.80;36.60
1958;DHT22;979;51.076;13.748;2023-04-24T14:01:58;26.80;37.70
1958;DHT22;979;51.076;13.748;2023-04-24T14:05:17;26.40;38.20
1958;DHT22;979;51.076;13.748;2023-04-24T14:12:15;27.60;39.10
1958;DHT22;979;51.076;13.748;2023-04-24T14:22:43;30.40;37.00
1958;DHT22;979;51.076;13.748;2023-04-24T14:42:48;27.30;35.60
1958;DHT22;979;51.076;13.748;2023-04-24T14:45:28;26.20;36.90
1958;DHT22;979;51.076;13.748;2023-04-24T14:47:59;26.10;37.60
1958;DHT22;979;51.076;13.748;2023-04-24T14:50:54;26.30;37.70
1958;DHT22;979;51.076;13.748;2023-04-24T15:03:23;24.30;38.50
1958;DHT22;979;51.076;13.748;2023-04-24T15:18:40;24.40;39.00
1958;DHT22;979;51.076;13.748;2023-04-24T15:21:20;24.00;38.60
1958;DHT22;979;51.076;13.748;2023-04-24T15:24:04;23.80;38.90
1958;DHT22;979;51.076;13.748;2023-04-24T15:26:42;23.70;38.60
1958;DHT22;979;51.076;13.748;2023-04-24T15:29:35;23.30;38.70
1958;DHT22;979;51.076;13.748;2023-04-24T15:32:53;22.90;38.50
1958;DHT22;979;51.076;13.748;2023-04-24T15:35:34;22.30;38.40
1958;DHT22;979;51.076;13.748;2023-04-24T15:38:19;21.80;38.80
1958;DHT22;979;51.076;13.748;2023-04-24T15:41:12;21.40;39.50
1958;DHT22;979;51.076;13.748;2023-04-24T15:43:47;21.10;40.00
1958;DHT22;979;51.076;13.748;2023-04-24T15:46:25;21.00;39.90
1958;DHT22;979;51.076;13.748;2023-04-24T15:49:39;20.60;41.30
1958;DHT22;979;51.076;13.748;2023-04-24T15:55:06;20.50;40.90
1958;DHT22;979;51.076;13.748;2023-04-24T15:58:26;20.20;41.30
1958;DHT22;979;51.076;13.748;2023-04-24T16:02:13;20.10;41.20
1958;DHT22;979;51.076;13.748;2023-04-24T16:05:00;19.60;41.60
1958;DHT22;979;51.076;13.748;2023-04-24T16:08:04;19.40;42.00
1958;DHT22;979;51.076;13.748;2023-04-24T16:11:06;19.20;42.70
1958;DHT22;979;51.076;13.748;2023-04-24T16:13:58;19.10;42.90
1958;DHT22;979;51.076;13.748;2023-04-24T16:17:06;19.00;43.20
1958;DHT22;979;51.076;13.748;2023-04-24T16:20:22;18.80;43.20
1958;DHT22;979;51.076;13.748;2023-04-24T16:24:13;18.70;43.10
1958;DHT22;979;51.076;13.748;2023-04-24T16:27:21;18.60;43.20
1958;DHT22;979;51.076;13.748;2023-04-24T16:30:24;18.50;43.40
1958;DHT22;979;51.076;13.748;2023-04-24T16:33:33;18.40;43.80
1958;DHT22;979;51.076;13.748;2023-04-24T16:36:14;18.40;43.90
1958;DHT22;979;51.076;13.748;2023-04-24T16:38:54;18.20;44.30
1958;DHT22;979;51.076;13.748;2023-04-24T16:46:07;18.10;44.70
1958;DHT22;979;51.076;13.748;2023-04-24T16:48:53;18.00;45.40
1958;DHT22;979;51.076;13.748;2023-04-24T16:52:26;17.80;46.10
1958;DHT22;979;51.076;13.748;2023-04-24T16:55:25;17.80;45.90
1958;DHT22;979;51.076;13.748;2023-04-24T16:58:10;17.60;46.30
1958;DHT22;979;51.076;13.748;2023-04-24T17:00:46;17.60;46.20
1958;DHT22;979;51.076;13.748;2023-04-24T17:07:22;17.60;46.80
1958;DHT22;979;51.076;13.748;2023-04-24T17:13:23;17.90;47.20
1958;DHT22;979;51.076;13.748;2023-04-24T17:16:43;18.20;47.50
1958;DHT22;979;51.076;13.748;2023-04-24T17:20:12;18.20;46.90
1958;DHT22;979;51.076;13.748;2023-04-24T17:23:40;18.60;46.90
1958;DHT22;979;51.076;13.748;2023-04-24T17:26:44;18.40;46.80
1958;DHT22;979;51.076;13.748;2023-04-24T17:29:58;18.10;47.10
1958;DHT22;979;51.076;13.748;2023-04-24T17:40:43;17.50;47.40
1958;DHT22;979;51.076;13.748;2023-04-24T19:01:17;14.50;50.40
1958;DHT22;979;51.076;13.748;2023-04-24T19:04:52;14.50;50.70
1958;DHT22;979;51.076;13.748;2023-04-24T19:08:07;14.30;50.90
1958;DHT22;979;51.076;13.748;2023-04-24T19:11:08;14.30;50.60
1958;DHT22;979;51.076;13.748;2023-04-24T19:21:40;14.30;51.20
1958;DHT22;979;51.076;13.748;2023-04-24T19:25:08;14.40;51.20
1958;DHT22;979;51.076;13.748;2023-04-24T19:28:00;14.30;51.50
1958;DHT22;979;51.076;13.748;2023-04-24T19:30:35;14.40;51.70
1958;DHT22;979;51.076;13.748;2023-04-24T19:33:15;14.30;51.80
1958;DHT22;979;51.076;13.748;2023-04-24T19:36:02;14.30;51.90
1958;DHT22;979;51.076;13.748;2023-04-24T19:38:59;14.00;51.50
1958;DHT22;979;51.076;13.748;2023-04-24T19:42:14;14.20;52.00
1958;DHT22;979;51.076;13.748;2023-04-24T19:45:33;14.10;52.00
1958;DHT22;979;51.076;13.748;2023-04-24T19:58:47;13.70;52.10
1958;DHT22;979;51.076;13.748;2023-04-24T20:04:13;13.80;52.60
1958;DHT22;979;51.076;13.748;2023-04-24T20:06:49;13.60;52.70
1958;DHT22;979;51.076;13.748;2023-04-24T20:10:06;13.60;53.10
1958;DHT22;979;51.076;13.748;2023-04-24T20:13:42;13.60;53.20
1958;DHT22;979;51.076;13.748;2023-04-24T20:29:26;13.70;53.40
1958;DHT22;979;51.076;13.748;2023-04-24T20:32:02;13.70;53.70
1958;DHT22;979;51.076;13.748;2023-04-24T20:34:31;13.70;53.90
1958;DHT22;979;51.076;13.748;2023-04-24T20:36:59;13.60;53.80
1958;DHT22;979;51.076;13.748;2023-04-24T20:39:30;13.60;54.00
1958;DHT22;979;51.076;13.748;2023-04-24T20:41:58;13.60;54.10
1958;DHT22;979;51.076;13.748;2023-04-24T20:44:54;13.50;54.20
1958;DHT22;979;51.076;13.748;2023-04-24T20:47:33;13.50;54.30
1958;DHT22;979;51.076;13.748;2023-04-24T20:50:04;13.30;54.40
1958;DHT22;979;51.076;13.748;2023-04-24T20:52:36;13.10;54.10
1958;DHT22;979;51.076;13.748;2023-04-24T20:55:11;13.20;54.70
1958;DHT22;979;51.076;13.748;2023-04-24T20:57:46;13.20;54.70
1958;DHT22;979;51.076;13.748;2023-04-24T21:00:21;13.10;54.80
1958;DHT22;979;51.076;13.748;2023-04-24T21:02:53;13.10;55.00
1958;DHT22;979;51.076;13.748;2023-04-24T21:05:22;13.10;55.00
1958;DHT22;979;51.076;13.748;2023-04-24T21:07:54;13.00;55.10
1958;DHT22;979;51.076;13.748;2023-04-24T21:10:24;13.10;55.10
1958;DHT22;979;51.076;13.748;2023-04-24T21:12:53;13.00;55.10
1958;DHT22;979;51.076;13.748;2023-04-24T21:19:38;12.90;55.10
1958;DHT22;979;51.076;13.748;2023-04-24T21:22:07;12.90;55.20
1958;DHT22;979;51.076;13.748;2023-04-24T21:24:36;13.00;55.30
1958;DHT22;979;51.076;13.748;2023-04-24T21:27:04;13.00;55.30
1958;DHT22;979;51.076;13.748;2023-04-24T21:29:35;13.00;55.40
1958;DHT22;979;51.076;13.748;2023-04-24T21:32:04;13.00;55.60
1958;DHT22;979;51.076;13.748;2023-04-24T21:34:32;13.00;55.50
1958;DHT22;979;51.076;13.748;2023-04-24T21:37:02;13.00;55.50
1958;DHT22;979;51.076;13.748;2023-04-24T21:39:31;12.90;55.50
1958;DHT22;979;51.076;13.748;2023-04-24T21:41:59;13.00;55.60
1958;DHT22;979;51.076;13.748;2023-04-24T21:44:28;12.90;55.50
1958;DHT22;979;51.076;13.748;2023-04-24T21:46:56;12.80;55.50
1958;DHT22;979;51.076;13.748;2023-04-24T21:49:27;12.80;55.60
1958;DHT22;979;51.076;13.748;2023-04-24T21:51:56;12.70;55.70
1958;DHT22;979;51.076;13.748;2023-04-24T21:54:28;12.60;55.60